createdAt,value
2018-08-03T00:00:53.897Z,63.09
2018-08-03T00:01:53.911Z,62.92
2018-08-03T00:02:53.877Z,63.79
2018-08-03T00:03:53.864Z,63.79
2018-08-03T00:04:53.855Z,63.79
2018-08-03T00:05:53.868Z,62.89
2018-08-03T00:06:53.832Z,63.72
2018-08-03T00:07:53.818Z,63.42
2018-08-03T00:08:53.834Z,63.32
2018-08-03T00:09:53.800Z,63.53
2018-08-03T00:10:53.787Z,64.32
2018-08-03T00:11:53.775Z,64.32
2018-08-03T00:12:53.797Z,64.42
2018-08-03T00:13:53.755Z,64.32
2018-08-03T00:14:53.747Z,64.03
2018-08-03T00:15:53.734Z,64.52
2018-08-03T00:16:53.721Z,63.82
2018-08-03T00:17:53.709Z,64.25
2018-08-03T00:18:53.733Z,63.95
2018-08-03T00:19:53.687Z,64.86
2018-08-03T00:20:53.677Z,64.86
2018-08-03T00:21:53.667Z,64.95
2018-08-03T00:22:53.657Z,64.75
2018-08-03T00:23:53.646Z,65.45
2018-08-03T00:24:53.654Z,65.66
2018-08-03T00:25:53.622Z,65.36
2018-08-03T00:26:53.612Z,66.09
2018-08-03T00:27:53.649Z,65.69
2018-08-03T00:28:53.591Z,66.09
2018-08-03T00:29:53.581Z,65.28
2018-08-03T00:30:53.567Z,66.09
2018-08-03T00:31:53.556Z,66.09
2018-08-03T00:32:53.548Z,65.99
2018-08-03T00:33:53.568Z,66.09
2018-08-03T00:34:53.523Z,65.69
2018-08-03T00:35:53.513Z,65.39
2018-08-03T00:36:53.504Z,65.28
2018-08-03T00:37:53.492Z,65.28
2018-08-03T00:38:53.480Z,65.78
2018-08-03T00:39:53.500Z,65.69
2018-08-03T00:40:53.456Z,65.69
2018-08-03T00:41:53.445Z,65.28
2018-08-03T00:42:53.439Z,64.86
2018-08-03T00:43:53.425Z,65.66
2018-08-03T00:44:53.415Z,65.78
2018-08-03T00:45:53.430Z,65.36
2018-08-03T00:46:53.437Z,65.19
2018-08-03T00:47:53.382Z,65.48
2018-08-03T00:48:53.372Z,65.19
2018-08-03T00:49:53.357Z,65.59
2018-08-03T00:50:53.345Z,66.28
2018-08-03T00:51:53.334Z,65.69
2018-08-03T00:52:53.347Z,66.22
2018-08-03T00:53:53.315Z,66.12
2018-08-03T00:54:53.341Z,66.32
2018-08-03T00:55:53.295Z,65.72
2018-08-03T00:56:53.287Z,66.22
2018-08-03T00:57:53.269Z,66.52
2018-08-03T00:58:53.279Z,65.62
2018-08-03T00:59:53.248Z,66.12
2018-08-03T01:00:53.282Z,67.42
2018-08-03T01:01:53.228Z,67.12
2018-08-03T01:02:53.215Z,67.45
2018-08-03T01:03:53.202Z,67.62
2018-08-03T01:04:53.193Z,68.05
2018-08-03T01:05:53.184Z,68.26
2018-08-03T01:06:53.196Z,68.05
2018-08-03T01:07:53.158Z,68.35
2018-08-03T01:08:53.147Z,68.35
2018-08-03T01:09:53.138Z,68.15
2018-08-03T01:10:53.131Z,68.05
2018-08-03T01:11:53.149Z,68.05
2018-08-03T01:12:53.108Z,68.26
2018-08-03T01:13:53.116Z,68.15
2018-08-03T01:14:53.080Z,68.29
2018-08-03T01:15:53.069Z,68.76
2018-08-03T01:16:53.107Z,68.79
2018-08-03T01:17:53.047Z,68.85
2018-08-03T01:18:53.034Z,68.85
2018-08-03T01:19:53.041Z,68.65
2018-08-03T01:20:53.018Z,69.29
2018-08-03T01:21:53.002Z,69.09
2018-08-03T01:22:53.027Z,69.49
2018-08-03T01:23:52.977Z,68.69
2018-08-03T01:24:52.968Z,68.39
2018-08-03T01:25:52.973Z,69.39
2018-08-03T01:26:52.947Z,69.09
2018-08-03T01:27:52.933Z,69.29
2018-08-03T01:28:52.955Z,69.99
2018-08-03T01:29:52.912Z,70.09
2018-08-03T01:30:52.902Z,69.89
2018-08-03T01:31:52.894Z,69.99
2018-08-03T01:32:52.883Z,69.99
2018-08-03T01:33:52.868Z,70.03
2018-08-03T01:34:52.892Z,69.39
2018-08-03T01:35:52.847Z,70.29
2018-08-03T01:36:52.837Z,70.79
2018-08-03T01:37:52.942Z,70.29
2018-08-03T01:38:52.814Z,70.79
2018-08-03T01:39:52.802Z,70.59
2018-08-03T01:40:52.813Z,70.79
2018-08-03T01:41:52.778Z,70.53
2018-08-03T01:42:52.767Z,71.09
2018-08-03T01:43:52.767Z,70.73
2018-08-03T01:44:52.745Z,71.03
2018-08-03T01:45:52.774Z,70.93
2018-08-03T01:46:52.722Z,71.93
2018-08-03T01:47:52.711Z,71.63
2018-08-03T01:48:52.697Z,71.33
2018-08-03T01:49:52.685Z,71.53
2018-08-03T01:50:52.674Z,71.13
2018-08-03T01:51:52.688Z,71.23
2018-08-03T01:52:52.656Z,71.26
2018-08-03T01:53:52.648Z,71.66
2018-08-03T01:54:52.631Z,71.77
2018-08-03T01:55:52.623Z,71.53
2018-08-03T01:56:52.634Z,71.47
2018-08-03T01:57:52.596Z,71.66
2018-08-03T01:58:52.623Z,71.63
2018-08-03T01:59:52.576Z,72.47
2018-08-03T02:00:52.565Z,72.27
2018-08-03T02:01:52.552Z,72.27
2018-08-03T02:02:52.542Z,72.47
2018-08-03T02:03:52.531Z,72.67
2018-08-03T02:04:57.851Z,72.06
2018-08-03T02:05:52.507Z,72.27
2018-08-03T02:06:52.506Z,72.27
2018-08-03T02:07:52.486Z,72.47
2018-08-03T02:08:52.472Z,72.37
2018-08-03T02:09:52.460Z,72.87
2018-08-03T02:10:52.470Z,72.56
2018-08-03T02:11:52.453Z,72.40
2018-08-03T02:12:52.429Z,72.71
2018-08-03T02:13:52.416Z,72.50
2018-08-03T02:14:52.404Z,73.00
2018-08-03T02:15:52.400Z,72.90
2018-08-03T02:16:52.400Z,73.30
2018-08-03T02:17:52.385Z,73.71
2018-08-03T02:18:52.375Z,74.71
2018-08-03T02:19:52.349Z,73.71
2018-08-03T02:20:52.335Z,73.50
2018-08-03T02:21:52.329Z,74.61
2018-08-03T02:22:52.312Z,73.81
2018-08-03T02:23:52.320Z,74.41
2018-08-03T02:24:52.320Z,74.31
2018-08-03T02:25:52.283Z,74.01
2018-08-03T02:26:52.272Z,74.41
2018-08-03T02:27:52.261Z,73.50
2018-08-03T02:28:52.251Z,74.35
2018-08-03T02:29:52.235Z,74.74
2018-08-03T02:30:52.244Z,74.85
2018-08-03T02:31:52.238Z,74.55
2018-08-03T02:32:52.220Z,74.55
2018-08-03T02:33:52.191Z,74.35
2018-08-03T02:34:52.183Z,74.55
2018-08-03T02:35:52.175Z,74.04
2018-08-03T02:36:52.161Z,74.65
2018-08-03T02:37:52.163Z,74.55
2018-08-03T02:38:52.138Z,74.85
2018-08-03T02:39:52.128Z,74.74
2018-08-03T02:40:52.113Z,74.74
2018-08-03T02:41:52.117Z,74.95
2018-08-03T02:42:52.099Z,74.95
2018-08-03T02:43:52.099Z,76.05
2018-08-03T02:44:52.069Z,74.85
2018-08-03T02:45:52.061Z,75.18
2018-08-03T02:46:52.048Z,75.38
2018-08-03T02:47:52.034Z,75.68
2018-08-03T02:48:52.029Z,74.98
2018-08-03T02:49:52.030Z,75.55
2018-08-03T02:50:52.023Z,74.85
2018-08-03T02:51:51.991Z,75.09
